Terminal Aerodrome Forecast
Issued by NWS

Home | Current Version | Previous Version | Text Only | Print | Product List | Glossary On
Versions: 1 2 3 4 5 6 7 8 9 10 11 12 13 14 15 16 17 18 19 20 21 22 23 24 25 26 27 28 29 30 31
000
FTUS41 KBOX 251728
TAFBAF
TAF
KBAF 251728Z 2518/2618 33005KT P6SM SCT050
     FM252200 27005KT P6SM FEW250
     FM260000 00000KT P6SM FEW250
     FM261400 23007KT P6SM FEW140=

USA.gov is the U.S. government's official web portal to all federal, state and local government web resources and services.